sensor_id;sensor_type;location;lat;lon;timestamp;temperature;humidity
67192;HTU21D;54120;53.504;49.426;2023-09-30T00:01:03;10.44;85.11
67192;HTU21D;54120;53.504;49.426;2023-09-30T00:03:34;10.41;85.19
67192;HTU21D;54120;53.504;49.426;2023-09-30T00:06:00;10.42;85.32
67192;HTU21D;54120;53.504;49.426;2023-09-30T00:08:26;10.38;85.47
67192;HTU21D;54120;53.504;49.426;2023-09-30T00:10:53;10.35;85.84
67192;HTU21D;54120;53.504;49.426;2023-09-30T00:13:20;10.41;85.64
67192;HTU21D;54120;53.504;49.426;2023-09-30T00:15:46;10.40;85.89
67192;HTU21D;54120;53.504;49.426;2023-09-30T00:18:13;10.31;86.20
67192;HTU21D;54120;53.504;49.426;2023-09-30T00:20:39;10.26;86.63
67192;HTU21D;54120;53.504;49.426;2023-09-30T00:23:05;10.26;86.36
67192;HTU21D;54120;53.504;49.426;2023-09-30T00:25:35;10.25;86.46
67192;HTU21D;54120;53.504;49.426;2023-09-30T00:28:01;10.25;86.71
67192;HTU21D;54120;53.504;49.426;2023-09-30T00:30:27;10.26;86.33
67192;HTU21D;54120;53.504;49.426;2023-09-30T00:32:53;10.28;86.45
67192;HTU21D;54120;53.504;49.426;2023-09-30T00:35:19;10.31;85.97
67192;HTU21D;54120;53.504;49.426;2023-09-30T00:37:44;10.33;85.92
67192;HTU21D;54120;53.504;49.426;2023-09-30T00:40:11;10.27;86.25
67192;HTU21D;54120;53.504;49.426;2023-09-30T00:42:38;10.24;86.29
67192;HTU21D;54120;53.504;49.426;2023-09-30T00:45:05;10.23;86.22
67192;HTU21D;54120;53.504;49.426;2023-09-30T00:47:32;10.25;85.96
67192;HTU21D;54120;53.504;49.426;2023-09-30T00:49:59;10.33;85.64
67192;HTU21D;54120;53.504;49.426;2023-09-30T00:52:26;10.36;85.26
67192;HTU21D;54120;53.504;49.426;2023-09-30T00:54:53;10.41;85.24
67192;HTU21D;54120;53.504;49.426;2023-09-30T00:57:21;10.39;85.11
67192;HTU21D;54120;53.504;49.426;2023-09-30T00:59:48;10.33;85.41
67192;HTU21D;54120;53.504;49.426;2023-09-30T01:02:15;10.33;85.32
67192;HTU21D;54120;53.504;49.426;2023-09-30T01:04:41;10.24;85.42
67192;HTU21D;54120;53.504;49.426;2023-09-30T01:07:08;10.10;86.32
67192;HTU21D;54120;53.504;49.426;2023-09-30T01:09:34;10.12;86.32
67192;HTU21D;54120;53.504;49.426;2023-09-30T01:12:02;10.16;86.32
67192;HTU21D;54120;53.504;49.426;2023-09-30T01:14:31;10.16;85.59
67192;HTU21D;54120;53.504;49.426;2023-09-30T01:16:57;10.13;86.48
67192;HTU21D;54120;53.504;49.426;2023-09-30T01:19:24;10.18;86.54
67192;HTU21D;54120;53.504;49.426;2023-09-30T01:21:57;10.13;86.52
67192;HTU21D;54120;53.504;49.426;2023-09-30T01:24:28;10.12;87.23
67192;HTU21D;54120;53.504;49.426;2023-09-30T01:26:55;10.13;87.29
67192;HTU21D;54120;53.504;49.426;2023-09-30T01:29:21;10.09;87.65
67192;HTU21D;54120;53.504;49.426;2023-09-30T01:31:48;10.03;87.63
67192;HTU21D;54120;53.504;49.426;2023-09-30T01:34:16;9.94;88.15
67192;HTU21D;54120;53.504;49.426;2023-09-30T01:36:43;9.93;88.38
67192;HTU21D;54120;53.504;49.426;2023-09-30T01:39:12;9.85;88.69
67192;HTU21D;54120;53.504;49.426;2023-09-30T01:41:40;9.89;89.01
67192;HTU21D;54120;53.504;49.426;2023-09-30T01:44:06;9.88;89.06
67192;HTU21D;54120;53.504;49.426;2023-09-30T01:46:33;9.84;89.11
67192;HTU21D;54120;53.504;49.426;2023-09-30T01:48:59;9.79;89.56
67192;HTU21D;54120;53.504;49.426;2023-09-30T01:51:25;9.75;89.63
67192;HTU21D;54120;53.504;49.426;2023-09-30T01:53:53;9.64;90.19
67192;HTU21D;54120;53.504;49.426;2023-09-30T01:56:19;9.55;90.51
67192;HTU21D;54120;53.504;49.426;2023-09-30T01:58:45;9.54;90.90
67192;HTU21D;54120;53.504;49.426;2023-09-30T02:01:11;9.55;90.81
67192;HTU21D;54120;53.504;49.426;2023-09-30T02:03:37;9.50;90.98
67192;HTU21D;54120;53.504;49.426;2023-09-30T02:06:03;9.47;91.18
67192;HTU21D;54120;53.504;49.426;2023-09-30T02:08:30;9.49;91.05
67192;HTU21D;54120;53.504;49.426;2023-09-30T02:10:57;9.45;90.97
67192;HTU21D;54120;53.504;49.426;2023-09-30T02:13:23;9.42;91.13
67192;HTU21D;54120;53.504;49.426;2023-09-30T02:15:49;9.40;91.15
67192;HTU21D;54120;53.504;49.426;2023-09-30T02:18:15;9.39;91.19
67192;HTU21D;54120;53.504;49.426;2023-09-30T02:20:41;9.36;91.23
67192;HTU21D;54120;53.504;49.426;2023-09-30T02:23:10;9.31;91.53
67192;HTU21D;54120;53.504;49.426;2023-09-30T02:25:39;9.27;91.67
67192;HTU21D;54120;53.504;49.426;2023-09-30T02:28:06;9.31;91.61
67192;HTU21D;54120;53.504;49.426;2023-09-30T02:30:32;9.26;91.75
67192;HTU21D;54120;53.504;49.426;2023-09-30T02:32:58;9.23;91.85
67192;HTU21D;54120;53.504;49.426;2023-09-30T02:35:25;9.22;92.01
67192;HTU21D;54120;53.504;49.426;2023-09-30T02:37:52;9.21;92.05
67192;HTU21D;54120;53.504;49.426;2023-09-30T02:40:18;9.18;92.33
67192;HTU21D;54120;53.504;49.426;2023-09-30T02:42:46;9.18;92.22
67192;HTU21D;54120;53.504;49.426;2023-09-30T02:45:14;9.26;92.11
67192;HTU21D;54120;53.504;49.426;2023-09-30T02:47:43;9.25;92.18
67192;HTU21D;54120;53.504;49.426;2023-09-30T02:50:09;9.54;91.39
67192;HTU21D;54120;53.504;49.426;2023-09-30T02:52:40;10.23;87.80
67192;HTU21D;54120;53.504;49.426;2023-09-30T02:55:08;10.89;84.44
67192;HTU21D;54120;53.504;49.426;2023-09-30T02:57:34;11.54;80.93
67192;HTU21D;54120;53.504;49.426;2023-09-30T03:00:04;12.13;77.78
67192;HTU21D;54120;53.504;49.426;2023-09-30T03:02:50;12.76;75.31
67192;HTU21D;54120;53.504;49.426;2023-09-30T03:05:17;13.59;71.43
67192;HTU21D;54120;53.504;49.426;2023-09-30T03:07:44;13.58;70.99
67192;HTU21D;54120;53.504;49.426;2023-09-30T03:10:11;13.91;70.07
67192;HTU21D;54120;53.504;49.426;2023-09-30T03:12:38;14.69;67.30
67192;HTU21D;54120;53.504;49.426;2023-09-30T03:15:04;15.56;64.04
67192;HTU21D;54120;53.504;49.426;2023-09-30T03:17:31;16.58;60.34
67192;HTU21D;54120;53.504;49.426;2023-09-30T03:20:01;17.40;57.46
67192;HTU21D;54120;53.504;49.426;2023-09-30T03:22:27;17.40;57.06
67192;HTU21D;54120;53.504;49.426;2023-09-30T03:24:54;17.78;55.40
67192;HTU21D;54120;53.504;49.426;2023-09-30T03:27:22;18.12;54.76
67192;HTU21D;54120;53.504;49.426;2023-09-30T03:29:48;19.20;51.37
67192;HTU21D;54120;53.504;49.426;2023-09-30T03:32:15;19.76;49.40
67192;HTU21D;54120;53.504;49.426;2023-09-30T03:34:41;20.40;47.73
67192;HTU21D;54120;53.504;49.426;2023-09-30T03:37:10;20.74;46.83
67192;HTU21D;54120;53.504;49.426;2023-09-30T03:39:36;21.18;45.37
67192;HTU21D;54120;53.504;49.426;2023-09-30T03:42:02;21.62;44.35
67192;HTU21D;54120;53.504;49.426;2023-09-30T03:44:29;21.90;43.74
67192;HTU21D;54120;53.504;49.426;2023-09-30T03:46:55;22.39;42.65
67192;HTU21D;54120;53.504;49.426;2023-09-30T03:49:22;22.40;42.39
67192;HTU21D;54120;53.504;49.426;2023-09-30T03:51:49;23.05;40.30
67192;HTU21D;54120;53.504;49.426;2023-09-30T03:54:17;22.63;41.22
67192;HTU21D;54120;53.504;49.426;2023-09-30T03:56:45;21.76;43.35
67192;HTU21D;54120;53.504;49.426;2023-09-30T03:59:12;21.66;43.80
67192;HTU21D;54120;53.504;49.426;2023-09-30T04:01:38;21.82;43.70
67192;HTU21D;54120;53.504;49.426;2023-09-30T04:04:08;21.39;44.53
67192;HTU21D;54120;53.504;49.426;2023-09-30T04:06:36;21.57;44.42
67192;HTU21D;54120;53.504;49.426;2023-09-30T04:09:08;22.03;43.00
67192;HTU21D;54120;53.504;49.426;2023-09-30T04:11:39;22.98;40.84
67192;HTU21D;54120;53.504;49.426;2023-09-30T04:14:06;23.36;39.65
67192;HTU21D;54120;53.504;49.426;2023-09-30T04:16:34;23.59;38.73
67192;HTU21D;54120;53.504;49.426;2023-09-30T04:19:00;23.56;39.23
67192;HTU21D;54120;53.504;49.426;2023-09-30T04:21:26;24.19;37.66
67192;HTU21D;54120;53.504;49.426;2023-09-30T04:23:54;24.61;36.82
67192;HTU21D;54120;53.504;49.426;2023-09-30T04:26:20;25.01;35.65
67192;HTU21D;54120;53.504;49.426;2023-09-30T04:28:46;25.14;35.98
67192;HTU21D;54120;53.504;49.426;2023-09-30T04:31:12;25.77;34.20
67192;HTU21D;54120;53.504;49.426;2023-09-30T04:33:38;25.00;35.31
67192;HTU21D;54120;53.504;49.426;2023-09-30T04:36:08;23.65;39.17
67192;HTU21D;54120;53.504;49.426;2023-09-30T04:38:35;24.87;36.68
67192;HTU21D;54120;53.504;49.426;2023-09-30T04:41:03;24.32;37.25
67192;HTU21D;54120;53.504;49.426;2023-09-30T04:43:29;24.93;36.37
67192;HTU21D;54120;53.504;49.426;2023-09-30T04:45:55;25.29;34.92
67192;HTU21D;54120;53.504;49.426;2023-09-30T04:48:25;24.13;37.72
67192;HTU21D;54120;53.504;49.426;2023-09-30T04:50:52;24.14;37.67
67192;HTU21D;54120;53.504;49.426;2023-09-30T04:53:18;25.02;36.44
67192;HTU21D;54120;53.504;49.426;2023-09-30T04:55:45;24.82;36.20
67192;HTU21D;54120;53.504;49.426;2023-09-30T04:58:11;24.26;37.74
67192;HTU21D;54120;53.504;49.426;2023-09-30T05:00:38;24.83;36.43
67192;HTU21D;54120;53.504;49.426;2023-09-30T05:03:05;25.15;35.58
67192;HTU21D;54120;53.504;49.426;2023-09-30T05:05:31;24.94;36.14
67192;HTU21D;54120;53.504;49.426;2023-09-30T05:07:57;25.83;34.45
67192;HTU21D;54120;53.504;49.426;2023-09-30T05:10:24;24.51;37.01
67192;HTU21D;54120;53.504;49.426;2023-09-30T05:12:50;23.96;39.02
67192;HTU21D;54120;53.504;49.426;2023-09-30T05:15:20;25.33;35.85
67192;HTU21D;54120;53.504;49.426;2023-09-30T05:17:48;26.86;32.02
67192;HTU21D;54120;53.504;49.426;2023-09-30T05:20:15;26.66;32.52
67192;HTU21D;54120;53.504;49.426;2023-09-30T05:22:43;25.73;34.10
67192;HTU21D;54120;53.504;49.426;2023-09-30T05:25:13;24.65;36.64
67192;HTU21D;54120;53.504;49.426;2023-09-30T05:27:42;24.24;37.49
67192;HTU21D;54120;53.504;49.426;2023-09-30T05:30:08;24.50;37.41
67192;HTU21D;54120;53.504;49.426;2023-09-30T05:32:37;26.18;33.89
67192;HTU21D;54120;53.504;49.426;2023-09-30T05:35:07;25.67;34.61
67192;HTU21D;54120;53.504;49.426;2023-09-30T05:37:42;25.93;34.40
67192;HTU21D;54120;53.504;49.426;2023-09-30T05:40:09;26.81;32.60
67192;HTU21D;54120;53.504;49.426;2023-09-30T05:42:58;27.17;31.52
67192;HTU21D;54120;53.504;49.426;2023-09-30T05:45:25;27.42;31.37
67192;HTU21D;54120;53.504;49.426;2023-09-30T05:47:55;27.32;31.32
67192;HTU21D;54120;53.504;49.426;2023-09-30T05:50:23;27.74;30.86
67192;HTU21D;54120;53.504;49.426;2023-09-30T05:52:53;28.53;29.29
67192;HTU21D;54120;53.504;49.426;2023-09-30T05:55:19;28.13;30.16
67192;HTU21D;54120;53.504;49.426;2023-09-30T05:57:49;28.47;29.60
67192;HTU21D;54120;53.504;49.426;2023-09-30T06:00:16;27.69;30.66
67192;HTU21D;54120;53.504;49.426;2023-09-30T06:02:49;27.84;30.31
67192;HTU21D;54120;53.504;49.426;2023-09-30T06:05:18;26.76;32.73
67192;HTU21D;54120;53.504;49.426;2023-09-30T06:07:49;26.60;33.30
67192;HTU21D;54120;53.504;49.426;2023-09-30T06:10:15;26.70;32.86
67192;HTU21D;54120;53.504;49.426;2023-09-30T06:12:46;27.46;31.57
67192;HTU21D;54120;53.504;49.426;2023-09-30T06:15:15;28.19;30.25
67192;HTU21D;54120;53.504;49.426;2023-09-30T06:17:42;27.81;30.96
67192;HTU21D;54120;53.504;49.426;2023-09-30T06:20:09;27.07;32.25
67192;HTU21D;54120;53.504;49.426;2023-09-30T06:22:45;27.66;31.16
67192;HTU21D;54120;53.504;49.426;2023-09-30T06:25:15;27.76;30.61
67192;HTU21D;54120;53.504;49.426;2023-09-30T06:27:44;26.61;33.06
67192;HTU21D;54120;53.504;49.426;2023-09-30T06:30:11;27.82;31.13
67192;HTU21D;54120;53.504;49.426;2023-09-30T06:32:39;27.95;30.36
67192;HTU21D;54120;53.504;49.426;2023-09-30T06:35:06;27.57;31.19
67192;HTU21D;54120;53.504;49.426;2023-09-30T06:37:36;27.14;31.78
67192;HTU21D;54120;53.504;49.426;2023-09-30T06:40:05;27.36;31.83
67192;HTU21D;54120;53.504;49.426;2023-09-30T06:42:34;28.01;30.52
67192;HTU21D;54120;53.504;49.426;2023-09-30T06:45:02;26.80;32.38
67192;HTU21D;54120;53.504;49.426;2023-09-30T06:47:34;25.75;34.68
67192;HTU21D;54120;53.504;49.426;2023-09-30T06:50:03;26.24;34.18
67192;HTU21D;54120;53.504;49.426;2023-09-30T06:52:38;27.23;31.77
67192;HTU21D;54120;53.504;49.426;2023-09-30T06:55:06;27.36;31.51
67192;HTU21D;54120;53.504;49.426;2023-09-30T06:57:34;26.38;32.93
67192;HTU21D;54120;53.504;49.426;2023-09-30T07:00:00;22.55;42.54
67192;HTU21D;54120;53.504;49.426;2023-09-30T07:02:26;25.28;35.96
67192;HTU21D;54120;53.504;49.426;2023-09-30T07:04:52;25.74;34.58
67192;HTU21D;54120;53.504;49.426;2023-09-30T07:07:19;23.83;39.74
67192;HTU21D;54120;53.504;49.426;2023-09-30T07:09:45;23.44;39.72
67192;HTU21D;54120;53.504;49.426;2023-09-30T07:12:11;22.11;43.67
67192;HTU21D;54120;53.504;49.426;2023-09-30T07:14:37;22.82;41.64
67192;HTU21D;54120;53.504;49.426;2023-09-30T07:17:03;23.58;39.62
67192;HTU21D;54120;53.504;49.426;2023-09-30T07:19:30;25.13;35.88
67192;HTU21D;54120;53.504;49.426;2023-09-30T07:21:57;24.20;37.58
67192;HTU21D;54120;53.504;49.426;2023-09-30T07:24:22;24.28;37.52
67192;HTU21D;54120;53.504;49.426;2023-09-30T07:26:48;21.54;43.42
67192;HTU21D;54120;53.504;49.426;2023-09-30T07:29:14;18.73;51.93
67192;HTU21D;54120;53.504;49.426;2023-09-30T07:31:40;17.90;55.65
67192;HTU21D;54120;53.504;49.426;2023-09-30T07:34:06;18.17;54.78
67192;HTU21D;54120;53.504;49.426;2023-09-30T07:36:32;18.17;55.52
67192;HTU21D;54120;53.504;49.426;2023-09-30T07:38:58;18.61;54.23
67192;HTU21D;54120;53.504;49.426;2023-09-30T07:41:27;19.02;52.95
67192;HTU21D;54120;53.504;49.426;2023-09-30T07:43:53;18.88;51.88
67192;HTU21D;54120;53.504;49.426;2023-09-30T07:46:19;18.83;52.39
67192;HTU21D;54120;53.504;49.426;2023-09-30T07:48:45;19.00;51.02
67192;HTU21D;54120;53.504;49.426;2023-09-30T07:51:11;18.94;51.59
67192;HTU21D;54120;53.504;49.426;2023-09-30T07:53:39;18.91;51.58
67192;HTU21D;54120;53.504;49.426;2023-09-30T07:56:08;18.87;51.23
67192;HTU21D;54120;53.504;49.426;2023-09-30T07:58:34;18.48;51.91
67192;HTU21D;54120;53.504;49.426;2023-09-30T08:01:00;18.11;53.13
67192;HTU21D;54120;53.504;49.426;2023-09-30T08:03:26;17.65;55.03
67192;HTU21D;54120;53.504;49.426;2023-09-30T08:05:52;18.05;54.61
67192;HTU21D;54120;53.504;49.426;2023-09-30T08:08:18;17.88;53.50
67192;HTU21D;54120;53.504;49.426;2023-09-30T08:10:44;17.77;53.96
67192;HTU21D;54120;53.504;49.426;2023-09-30T08:13:10;17.76;54.71
67192;HTU21D;54120;53.504;49.426;2023-09-30T08:15:36;18.63;52.09
67192;HTU21D;54120;53.504;49.426;2023-09-30T08:18:03;18.74;50.47
67192;HTU21D;54120;53.504;49.426;2023-09-30T08:20:31;18.46;52.22
67192;HTU21D;54120;53.504;49.426;2023-09-30T08:22:57;18.12;51.87
67192;HTU21D;54120;53.504;49.426;2023-09-30T08:25:24;17.67;52.60
67192;HTU21D;54120;53.504;49.426;2023-09-30T08:27:50;17.72;52.80
67192;HTU21D;54120;53.504;49.426;2023-09-30T08:30:17;18.22;51.10
67192;HTU21D;54120;53.504;49.426;2023-09-30T08:32:43;18.10;49.44
67192;HTU21D;54120;53.504;49.426;2023-09-30T08:35:09;17.97;51.18
67192;HTU21D;54120;53.504;49.426;2023-09-30T08:37:35;17.82;52.20
67192;HTU21D;54120;53.504;49.426;2023-09-30T08:40:02;17.98;52.25
67192;HTU21D;54120;53.504;49.426;2023-09-30T08:42:32;18.03;52.25
67192;HTU21D;54120;53.504;49.426;2023-09-30T08:44:59;18.15;51.13
67192;HTU21D;54120;53.504;49.426;2023-09-30T08:47:29;18.23;51.14
67192;HTU21D;54120;53.504;49.426;2023-09-30T08:49:56;17.76;52.43
67192;HTU21D;54120;53.504;49.426;2023-09-30T08:52:32;17.98;51.92
67192;HTU21D;54120;53.504;49.426;2023-09-30T08:54:59;18.28;50.53
67192;HTU21D;54120;53.504;49.426;2023-09-30T08:57:25;18.00;51.60
67192;HTU21D;54120;53.504;49.426;2023-09-30T08:59:53;18.19;51.32
67192;HTU21D;54120;53.504;49.426;2023-09-30T09:02:19;18.35;49.94
67192;HTU21D;54120;53.504;49.426;2023-09-30T09:04:45;18.37;49.42
67192;HTU21D;54120;53.504;49.426;2023-09-30T09:07:15;18.13;50.71
67192;HTU21D;54120;53.504;49.426;2023-09-30T09:09:41;18.78;49.56
67192;HTU21D;54120;53.504;49.426;2023-09-30T09:12:19;19.40;47.59
67192;HTU21D;54120;53.504;49.426;2023-09-30T09:14:45;19.57;46.26
67192;HTU21D;54120;53.504;49.426;2023-09-30T09:17:12;19.32;46.79
67192;HTU21D;54120;53.504;49.426;2023-09-30T09:19:39;19.53;46.19
67192;HTU21D;54120;53.504;49.426;2023-09-30T09:22:05;19.97;45.76
67192;HTU21D;54120;53.504;49.426;2023-09-30T09:24:34;19.74;43.51
67192;HTU21D;54120;53.504;49.426;2023-09-30T09:27:11;18.99;45.85
67192;HTU21D;54120;53.504;49.426;2023-09-30T09:29:38;19.06;45.11
67192;HTU21D;54120;53.504;49.426;2023-09-30T09:32:13;18.68;46.08
67192;HTU21D;54120;53.504;49.426;2023-09-30T09:34:40;18.67;46.22
67192;HTU21D;54120;53.504;49.426;2023-09-30T09:37:14;18.56;46.41
67192;HTU21D;54120;53.504;49.426;2023-09-30T09:39:52;18.85;46.44
67192;HTU21D;54120;53.504;49.426;2023-09-30T09:42:29;19.48;45.05
67192;HTU21D;54120;53.504;49.426;2023-09-30T09:45:00;19.94;44.03
67192;HTU21D;54120;53.504;49.426;2023-09-30T09:47:26;19.81;42.89
67192;HTU21D;54120;53.504;49.426;2023-09-30T09:49:57;19.53;44.32
67192;HTU21D;54120;53.504;49.426;2023-09-30T09:52:24;19.31;45.39
67192;HTU21D;54120;53.504;49.426;2023-09-30T09:54:51;19.29;44.76
67192;HTU21D;54120;53.504;49.426;2023-09-30T09:57:18;19.16;46.21
67192;HTU21D;54120;53.504;49.426;2023-09-30T09:59:45;18.76;46.83
67192;HTU21D;54120;53.504;49.426;2023-09-30T10:02:14;18.51;47.30
67192;HTU21D;54120;53.504;49.426;2023-09-30T10:04:45;18.32;47.97
67192;HTU21D;54120;53.504;49.426;2023-09-30T10:07:33;18.34;48.04
67192;HTU21D;54120;53.504;49.426;2023-09-30T10:10:01;18.59;47.36
67192;HTU21D;54120;53.504;49.426;2023-09-30T10:12:36;18.41;47.71
67192;HTU21D;54120;53.504;49.426;2023-09-30T10:18:11;18.74;45.93
67192;HTU21D;54120;53.504;49.426;2023-09-30T10:20:39;18.96;45.78
67192;HTU21D;54120;53.504;49.426;2023-09-30T10:23:24;18.88;45.38
67192;HTU21D;54120;53.504;49.426;2023-09-30T10:25:53;18.48;46.60
67192;HTU21D;54120;53.504;49.426;2023-09-30T10:31:13;18.64;46.10
67192;HTU21D;54120;53.504;49.426;2023-09-30T10:36:34;19.12;44.87
67192;HTU21D;54120;53.504;49.426;2023-09-30T10:39:02;19.41;43.32
67192;HTU21D;54120;53.504;49.426;2023-09-30T10:46:52;19.36;45.14
67192;HTU21D;54120;53.504;49.426;2023-09-30T10:51:57;18.70;46.17
67192;HTU21D;54120;53.504;49.426;2023-09-30T10:54:29;18.72;46.36
67192;HTU21D;54120;53.504;49.426;2023-09-30T10:56:56;18.70;44.82
67192;HTU21D;54120;53.504;49.426;2023-09-30T10:59:26;18.17;45.61
67192;HTU21D;54120;53.504;49.426;2023-09-30T11:01:53;17.90;47.62
67192;HTU21D;54120;53.504;49.426;2023-09-30T11:04:20;18.09;48.00
67192;HTU21D;54120;53.504;49.426;2023-09-30T11:06:46;18.26;46.83
67192;HTU21D;54120;53.504;49.426;2023-09-30T11:09:17;18.55;47.35
67192;HTU21D;54120;53.504;49.426;2023-09-30T11:11:46;18.80;46.25
67192;HTU21D;54120;53.504;49.426;2023-09-30T11:14:29;18.78;46.99
67192;HTU21D;54120;53.504;49.426;2023-09-30T11:17:01;18.86;46.69
67192;HTU21D;54120;53.504;49.426;2023-09-30T11:19:55;19.00;45.77
67192;HTU21D;54120;53.504;49.426;2023-09-30T11:22:21;18.97;45.73
67192;HTU21D;54120;53.504;49.426;2023-09-30T11:24:47;19.06;45.66
67192;HTU21D;54120;53.504;49.426;2023-09-30T11:27:22;18.87;46.04
67192;HTU21D;54120;53.504;49.426;2023-09-30T11:29:50;18.86;45.73
67192;HTU21D;54120;53.504;49.426;2023-09-30T11:32:26;18.66;46.10
67192;HTU21D;54120;53.504;49.426;2023-09-30T11:34:52;18.35;47.01
67192;HTU21D;54120;53.504;49.426;2023-09-30T11:37:18;18.26;47.60
67192;HTU21D;54120;53.504;49.426;2023-09-30T11:39:44;18.43;46.81
67192;HTU21D;54120;53.504;49.426;2023-09-30T11:42:15;18.42;46.48
67192;HTU21D;54120;53.504;49.426;2023-09-30T11:44:49;18.48;45.96
67192;HTU21D;54120;53.504;49.426;2023-09-30T11:47:16;18.30;46.58
67192;HTU21D;54120;53.504;49.426;2023-09-30T11:49:43;18.25;47.04
67192;HTU21D;54120;53.504;49.426;2023-09-30T11:52:14;18.20;47.24
67192;HTU21D;54120;53.504;49.426;2023-09-30T11:54:44;18.11;47.35
67192;HTU21D;54120;53.504;49.426;2023-09-30T11:57:15;18.14;47.09
67192;HTU21D;54120;53.504;49.426;2023-09-30T11:59:42;18.25;46.90
67192;HTU21D;54120;53.504;49.426;2023-09-30T12:02:09;18.22;46.30
67192;HTU21D;54120;53.504;49.426;2023-09-30T12:04:36;18.11;47.23
67192;HTU21D;54120;53.504;49.426;2023-09-30T12:07:02;18.06;47.59
67192;HTU21D;54120;53.504;49.426;2023-09-30T12:09:28;17.94;47.47
67192;HTU21D;54120;53.504;49.426;2023-09-30T12:11:56;17.81;48.86
67192;HTU21D;54120;53.504;49.426;2023-09-30T12:14:24;17.73;48.89
67192;HTU21D;54120;53.504;49.426;2023-09-30T12:16:50;17.75;49.49
67192;HTU21D;54120;53.504;49.426;2023-09-30T12:19:17;17.79;49.34
67192;HTU21D;54120;53.504;49.426;2023-09-30T12:21:44;17.90;49.16
67192;HTU21D;54120;53.504;49.426;2023-09-30T12:24:13;17.79;49.42
67192;HTU21D;54120;53.504;49.426;2023-09-30T12:26:43;17.82;49.65
67192;HTU21D;54120;53.504;49.426;2023-09-30T12:29:18;17.79;50.26
67192;HTU21D;54120;53.504;49.426;2023-09-30T12:31:48;17.67;50.72
67192;HTU21D;54120;53.504;49.426;2023-09-30T12:34:15;17.51;50.68
67192;HTU21D;54120;53.504;49.426;2023-09-30T12:36:42;17.45;50.88
67192;HTU21D;54120;53.504;49.426;2023-09-30T12:39:09;17.51;51.17
67192;HTU21D;54120;53.504;49.426;2023-09-30T12:41:42;17.51;50.64
67192;HTU21D;54120;53.504;49.426;2023-09-30T12:44:10;17.38;50.76
67192;HTU21D;54120;53.504;49.426;2023-09-30T12:46:37;17.25;51.53
67192;HTU21D;54120;53.504;49.426;2023-09-30T12:49:05;17.19;52.09
67192;HTU21D;54120;53.504;49.426;2023-09-30T12:51:33;17.15;51.95
67192;HTU21D;54120;53.504;49.426;2023-09-30T12:54:00;17.07;51.72
67192;HTU21D;54120;53.504;49.426;2023-09-30T12:56:26;17.07;51.77
67192;HTU21D;54120;53.504;49.426;2023-09-30T12:58:55;17.11;52.00
67192;HTU21D;54120;53.504;49.426;2023-09-30T13:01:21;17.17;51.82
67192;HTU21D;54120;53.504;49.426;2023-09-30T13:03:48;17.31;51.85
67192;HTU21D;54120;53.504;49.426;2023-09-30T13:06:15;17.28;51.27
67192;HTU21D;54120;53.504;49.426;2023-09-30T13:08:42;17.30;51.82
67192;HTU21D;54120;53.504;49.426;2023-09-30T13:11:09;17.34;51.05
67192;HTU21D;54120;53.504;49.426;2023-09-30T13:13:37;17.37;51.55
67192;HTU21D;54120;53.504;49.426;2023-09-30T13:16:03;17.34;51.50
67192;HTU21D;54120;53.504;49.426;2023-09-30T13:18:35;17.30;50.90
67192;HTU21D;54120;53.504;49.426;2023-09-30T13:21:02;17.35;50.76
67192;HTU21D;54120;53.504;49.426;2023-09-30T13:23:29;17.35;51.04
67192;HTU21D;54120;53.504;49.426;2023-09-30T13:25:56;17.45;50.97
67192;HTU21D;54120;53.504;49.426;2023-09-30T13:28:22;17.45;50.34
67192;HTU21D;54120;53.504;49.426;2023-09-30T13:30:48;17.25;51.30
67192;HTU21D;54120;53.504;49.426;2023-09-30T13:33:14;17.14;51.56
67192;HTU21D;54120;53.504;49.426;2023-09-30T13:35:40;16.98;51.72
67192;HTU21D;54120;53.504;49.426;2023-09-30T13:38:06;16.86;52.24
67192;HTU21D;54120;53.504;49.426;2023-09-30T13:40:32;16.77;52.43
67192;HTU21D;54120;53.504;49.426;2023-09-30T13:42:58;16.71;53.04
67192;HTU21D;54120;53.504;49.426;2023-09-30T13:45:25;16.59;53.42
67192;HTU21D;54120;53.504;49.426;2023-09-30T13:47:53;16.46;54.07
67192;HTU21D;54120;53.504;49.426;2023-09-30T13:50:20;16.35;54.16
67192;HTU21D;54120;53.504;49.426;2023-09-30T13:52:46;16.22;54.61
67192;HTU21D;54120;53.504;49.426;2023-09-30T13:55:12;16.14;55.25
67192;HTU21D;54120;53.504;49.426;2023-09-30T13:57:47;16.06;55.95
67192;HTU21D;54120;53.504;49.426;2023-09-30T14:00:18;15.97;55.52
67192;HTU21D;54120;53.504;49.426;2023-09-30T14:02:44;15.88;55.97
67192;HTU21D;54120;53.504;49.426;2023-09-30T14:05:10;15.77;56.93
67192;HTU21D;54120;53.504;49.426;2023-09-30T14:07:39;15.62;56.70
67192;HTU21D;54120;53.504;49.426;2023-09-30T14:10:07;15.55;57.41
67192;HTU21D;54120;53.504;49.426;2023-09-30T14:12:36;15.46;58.12
67192;HTU21D;54120;53.504;49.426;2023-09-30T14:15:03;15.33;58.09
67192;HTU21D;54120;53.504;49.426;2023-09-30T14:17:31;15.27;57.73
67192;HTU21D;54120;53.504;49.426;2023-09-30T14:19:57;15.19;59.33
67192;HTU21D;54120;53.504;49.426;2023-09-30T14:22:23;15.02;59.44
67192;HTU21D;54120;53.504;49.426;2023-09-30T14:24:49;14.88;59.57
67192;HTU21D;54120;53.504;49.426;2023-09-30T14:27:15;14.84;60.29
67192;HTU21D;54120;53.504;49.426;2023-09-30T14:29:41;14.78;60.73
67192;HTU21D;54120;53.504;49.426;2023-09-30T14:32:09;14.71;60.43
67192;HTU21D;54120;53.504;49.426;2023-09-30T14:34:35;14.62;61.12
67192;HTU21D;54120;53.504;49.426;2023-09-30T14:37:01;14.54;61.10
67192;HTU21D;54120;53.504;49.426;2023-09-30T14:39:27;14.47;62.60
67192;HTU21D;54120;53.504;49.426;2023-09-30T14:41:53;14.44;63.18
67192;HTU21D;54120;53.504;49.426;2023-09-30T14:44:19;14.27;63.02
67192;HTU21D;54120;53.504;49.426;2023-09-30T14:46:47;14.24;62.53
67192;HTU21D;54120;53.504;49.426;2023-09-30T14:49:14;14.19;62.50
67192;HTU21D;54120;53.504;49.426;2023-09-30T14:51:41;14.12;63.82
67192;HTU21D;54120;53.504;49.426;2023-09-30T14:54:07;14.09;62.90
67192;HTU21D;54120;53.504;49.426;2023-09-30T14:56:33;14.05;63.79
67192;HTU21D;54120;53.504;49.426;2023-09-30T14:58:59;13.97;64.28
67192;HTU21D;54120;53.504;49.426;2023-09-30T15:01:25;13.89;64.23
67192;HTU21D;54120;53.504;49.426;2023-09-30T15:03:51;13.83;64.28
67192;HTU21D;54120;53.504;49.426;2023-09-30T15:06:17;13.68;65.21
67192;HTU21D;54120;53.504;49.426;2023-09-30T15:08:43;13.56;66.16
67192;HTU21D;54120;53.504;49.426;2023-09-30T15:11:13;13.47;65.61
67192;HTU21D;54120;53.504;49.426;2023-09-30T15:13:42;13.46;66.34
67192;HTU21D;54120;53.504;49.426;2023-09-30T15:16:17;13.35;66.74
67192;HTU21D;54120;53.504;49.426;2023-09-30T15:18:44;13.21;67.10
67192;HTU21D;54120;53.504;49.426;2023-09-30T15:21:11;13.15;67.28
67192;HTU21D;54120;53.504;49.426;2023-09-30T15:23:37;13.21;66.84